sensor_id;sensor_type;location;lat;lon;timestamp;temperature;humidity
16174;DHT22;14031;50.158;8.626;2022-08-01T00:01:46;24.90;99.90
16174;DHT22;14031;50.158;8.626;2022-08-01T00:04:13;24.80;99.90
16174;DHT22;14031;50.158;8.626;2022-08-01T00:06:40;24.80;99.90
16174;DHT22;14031;50.158;8.626;2022-08-01T00:09:06;24.70;99.90
16174;DHT22;14031;50.158;8.626;2022-08-01T00:11:33;24.60;99.90
16174;DHT22;14031;50.158;8.626;2022-08-01T00:14:00;24.50;99.90
16174;DHT22;14031;50.158;8.626;2022-08-01T00:16:27;24.50;99.90
16174;DHT22;14031;50.158;8.626;2022-08-01T00:18:55;24.50;99.90
16174;DHT22;14031;50.158;8.626;2022-08-01T00:21:22;24.50;99.90
16174;DHT22;14031;50.158;8.626;2022-08-01T00:23:49;24.50;99.90
16174;DHT22;14031;50.158;8.626;2022-08-01T00:26:16;24.50;99.90
16174;DHT22;14031;50.158;8.626;2022-08-01T00:28:43;24.50;99.90
16174;DHT22;14031;50.158;8.626;2022-08-01T00:31:10;24.50;99.90
16174;DHT22;14031;50.158;8.626;2022-08-01T00:33:36;24.50;99.90
16174;DHT22;14031;50.158;8.626;2022-08-01T00:36:05;24.40;99.90
16174;DHT22;14031;50.158;8.626;2022-08-01T00:38:31;24.40;99.90
16174;DHT22;14031;50.158;8.626;2022-08-01T00:40:58;24.40;99.90
16174;DHT22;14031;50.158;8.626;2022-08-01T00:43:25;24.30;99.90
16174;DHT22;14031;50.158;8.626;2022-08-01T00:45:52;24.30;99.90
16174;DHT22;14031;50.158;8.626;2022-08-01T00:48:19;24.30;99.90
16174;DHT22;14031;50.158;8.626;2022-08-01T00:50:46;24.30;99.90
16174;DHT22;14031;50.158;8.626;2022-08-01T00:53:14;24.20;99.90
16174;DHT22;14031;50.158;8.626;2022-08-01T00:55:42;24.10;99.90
16174;DHT22;14031;50.158;8.626;2022-08-01T00:58:09;24.20;99.90
16174;DHT22;14031;50.158;8.626;2022-08-01T01:00:36;24.10;99.90
16174;DHT22;14031;50.158;8.626;2022-08-01T01:03:03;24.20;99.90
16174;DHT22;14031;50.158;8.626;2022-08-01T01:05:33;24.10;99.90
16174;DHT22;14031;50.158;8.626;2022-08-01T01:08:04;24.10;99.90
16174;DHT22;14031;50.158;8.626;2022-08-01T01:10:39;24.10;99.90
16174;DHT22;14031;50.158;8.626;2022-08-01T01:13:10;24.10;99.90
16174;DHT22;14031;50.158;8.626;2022-08-01T01:15:41;24.10;99.90
16174;DHT22;14031;50.158;8.626;2022-08-01T01:18:12;24.00;99.90
16174;DHT22;14031;50.158;8.626;2022-08-01T01:20:44;24.00;99.90
16174;DHT22;14031;50.158;8.626;2022-08-01T01:23:36;23.90;99.90
16174;DHT22;14031;50.158;8.626;2022-08-01T01:26:23;23.90;99.90
16174;DHT22;14031;50.158;8.626;2022-08-01T01:29:01;23.90;99.90
16174;DHT22;14031;50.158;8.626;2022-08-01T01:31:35;23.90;99.90
16174;DHT22;14031;50.158;8.626;2022-08-01T01:34:03;23.90;99.90
16174;DHT22;14031;50.158;8.626;2022-08-01T01:36:31;23.90;99.90
16174;DHT22;14031;50.158;8.626;2022-08-01T01:38:59;23.80;99.90
16174;DHT22;14031;50.158;8.626;2022-08-01T01:41:27;23.80;99.90
16174;DHT22;14031;50.158;8.626;2022-08-01T01:43:56;23.80;99.90
16174;DHT22;14031;50.158;8.626;2022-08-01T01:46:26;23.70;99.90
16174;DHT22;14031;50.158;8.626;2022-08-01T01:48:55;23.70;99.90
16174;DHT22;14031;50.158;8.626;2022-08-01T01:51:24;23.70;99.90
16174;DHT22;14031;50.158;8.626;2022-08-01T01:53:53;23.60;99.90
16174;DHT22;14031;50.158;8.626;2022-08-01T01:56:21;23.60;99.90
16174;DHT22;14031;50.158;8.626;2022-08-01T01:58:51;23.60;99.90
16174;DHT22;14031;50.158;8.626;2022-08-01T02:01:20;23.60;99.90
16174;DHT22;14031;50.158;8.626;2022-08-01T02:03:49;23.60;99.90
16174;DHT22;14031;50.158;8.626;2022-08-01T02:06:20;23.50;99.90
16174;DHT22;14031;50.158;8.626;2022-08-01T02:08:48;23.60;99.90
16174;DHT22;14031;50.158;8.626;2022-08-01T02:11:15;23.50;99.90
16174;DHT22;14031;50.158;8.626;2022-08-01T02:13:48;23.50;99.90
16174;DHT22;14031;50.158;8.626;2022-08-01T02:16:19;23.50;99.90
16174;DHT22;14031;50.158;8.626;2022-08-01T02:18:48;23.40;99.90
16174;DHT22;14031;50.158;8.626;2022-08-01T02:21:28;23.30;99.90
16174;DHT22;14031;50.158;8.626;2022-08-01T02:24:02;23.30;99.90
16174;DHT22;14031;50.158;8.626;2022-08-01T02:26:30;23.30;99.90
16174;DHT22;14031;50.158;8.626;2022-08-01T02:29:00;23.30;99.90
16174;DHT22;14031;50.158;8.626;2022-08-01T02:31:31;23.30;99.90
16174;DHT22;14031;50.158;8.626;2022-08-01T02:34:03;23.30;99.90
16174;DHT22;14031;50.158;8.626;2022-08-01T02:36:33;23.20;99.90
16174;DHT22;14031;50.158;8.626;2022-08-01T02:39:03;23.30;99.90
16174;DHT22;14031;50.158;8.626;2022-08-01T02:41:30;23.20;99.90
16174;DHT22;14031;50.158;8.626;2022-08-01T02:44:01;23.20;99.90
16174;DHT22;14031;50.158;8.626;2022-08-01T02:46:34;23.20;99.90
16174;DHT22;14031;50.158;8.626;2022-08-01T02:49:05;23.20;99.90
16174;DHT22;14031;50.158;8.626;2022-08-01T02:51:34;23.10;99.90
16174;DHT22;14031;50.158;8.626;2022-08-01T02:54:02;23.10;99.90
16174;DHT22;14031;50.158;8.626;2022-08-01T02:56:31;23.10;99.90
16174;DHT22;14031;50.158;8.626;2022-08-01T02:59:03;23.00;99.90
16174;DHT22;14031;50.158;8.626;2022-08-01T03:01:32;23.00;99.90
16174;DHT22;14031;50.158;8.626;2022-08-01T03:04:00;23.00;99.90
16174;DHT22;14031;50.158;8.626;2022-08-01T03:06:29;23.00;99.90
16174;DHT22;14031;50.158;8.626;2022-08-01T03:08:57;23.00;99.90
16174;DHT22;14031;50.158;8.626;2022-08-01T03:11:26;22.90;99.90
16174;DHT22;14031;50.158;8.626;2022-08-01T03:13:55;22.90;99.90
16174;DHT22;14031;50.158;8.626;2022-08-01T03:16:24;22.90;99.90
16174;DHT22;14031;50.158;8.626;2022-08-01T03:18:53;22.90;99.90
16174;DHT22;14031;50.158;8.626;2022-08-01T03:21:23;22.90;99.90
16174;DHT22;14031;50.158;8.626;2022-08-01T03:23:53;22.90;99.90
16174;DHT22;14031;50.158;8.626;2022-08-01T03:26:24;22.90;99.90
16174;DHT22;14031;50.158;8.626;2022-08-01T03:28:52;22.80;99.90
16174;DHT22;14031;50.158;8.626;2022-08-01T03:31:22;22.80;99.90
16174;DHT22;14031;50.158;8.626;2022-08-01T03:33:49;22.90;99.90
16174;DHT22;14031;50.158;8.626;2022-08-01T03:36:19;22.90;99.90
16174;DHT22;14031;50.158;8.626;2022-08-01T03:38:51;22.80;99.90
16174;DHT22;14031;50.158;8.626;2022-08-01T03:41:21;22.80;99.90
16174;DHT22;14031;50.158;8.626;2022-08-01T03:43:52;22.80;99.90
16174;DHT22;14031;50.158;8.626;2022-08-01T03:46:27;22.80;99.90
16174;DHT22;14031;50.158;8.626;2022-08-01T03:48:58;22.80;99.90
16174;DHT22;14031;50.158;8.626;2022-08-01T03:51:27;22.80;99.90
16174;DHT22;14031;50.158;8.626;2022-08-01T03:53:59;22.80;99.90
16174;DHT22;14031;50.158;8.626;2022-08-01T03:56:28;22.80;99.90
16174;DHT22;14031;50.158;8.626;2022-08-01T03:58:58;22.80;99.90
16174;DHT22;14031;50.158;8.626;2022-08-01T04:01:25;22.80;99.90
16174;DHT22;14031;50.158;8.626;2022-08-01T04:03:53;22.80;99.90
16174;DHT22;14031;50.158;8.626;2022-08-01T04:06:20;22.80;99.90
16174;DHT22;14031;50.158;8.626;2022-08-01T04:08:47;22.80;99.90
16174;DHT22;14031;50.158;8.626;2022-08-01T04:11:23;22.80;99.90
16174;DHT22;14031;50.158;8.626;2022-08-01T04:13:51;22.90;99.90
16174;DHT22;14031;50.158;8.626;2022-08-01T04:16:19;22.80;99.90
16174;DHT22;14031;50.158;8.626;2022-08-01T04:18:46;22.80;99.90
16174;DHT22;14031;50.158;8.626;2022-08-01T04:21:13;22.80;99.90
16174;DHT22;14031;50.158;8.626;2022-08-01T04:23:41;22.70;99.90
16174;DHT22;14031;50.158;8.626;2022-08-01T04:26:10;22.70;99.90
16174;DHT22;14031;50.158;8.626;2022-08-01T04:28:40;22.70;99.90
16174;DHT22;14031;50.158;8.626;2022-08-01T04:31:09;22.70;99.90
16174;DHT22;14031;50.158;8.626;2022-08-01T04:33:39;22.60;99.90
16174;DHT22;14031;50.158;8.626;2022-08-01T04:36:08;22.60;99.90
16174;DHT22;14031;50.158;8.626;2022-08-01T04:38:37;22.60;99.90
16174;DHT22;14031;50.158;8.626;2022-08-01T04:41:06;22.50;99.90
16174;DHT22;14031;50.158;8.626;2022-08-01T04:43:33;22.50;99.90
16174;DHT22;14031;50.158;8.626;2022-08-01T04:46:02;22.50;99.90
16174;DHT22;14031;50.158;8.626;2022-08-01T04:48:32;22.50;99.90
16174;DHT22;14031;50.158;8.626;2022-08-01T04:50:59;22.50;99.90
16174;DHT22;14031;50.158;8.626;2022-08-01T04:53:26;22.50;99.90
16174;DHT22;14031;50.158;8.626;2022-08-01T04:55:53;22.50;99.90
16174;DHT22;14031;50.158;8.626;2022-08-01T04:58:21;22.60;99.90
16174;DHT22;14031;50.158;8.626;2022-08-01T05:00:54;22.60;99.90
16174;DHT22;14031;50.158;8.626;2022-08-01T05:03:22;22.60;99.90
16174;DHT22;14031;50.158;8.626;2022-08-01T05:05:49;22.60;99.90
16174;DHT22;14031;50.158;8.626;2022-08-01T05:08:15;22.60;99.90
16174;DHT22;14031;50.158;8.626;2022-08-01T05:10:42;22.60;99.90
16174;DHT22;14031;50.158;8.626;2022-08-01T05:13:09;22.60;99.90
16174;DHT22;14031;50.158;8.626;2022-08-01T05:15:36;22.60;99.90
16174;DHT22;14031;50.158;8.626;2022-08-01T05:18:03;22.60;99.90
16174;DHT22;14031;50.158;8.626;2022-08-01T05:20:31;22.60;99.90
16174;DHT22;14031;50.158;8.626;2022-08-01T05:22:58;22.60;99.90
16174;DHT22;14031;50.158;8.626;2022-08-01T05:25:25;22.70;99.90
16174;DHT22;14031;50.158;8.626;2022-08-01T05:27:52;22.70;99.90
16174;DHT22;14031;50.158;8.626;2022-08-01T05:30:19;22.70;99.90
16174;DHT22;14031;50.158;8.626;2022-08-01T05:32:45;22.70;99.90
16174;DHT22;14031;50.158;8.626;2022-08-01T05:35:12;22.80;99.90
16174;DHT22;14031;50.158;8.626;2022-08-01T05:37:40;22.80;99.90
16174;DHT22;14031;50.158;8.626;2022-08-01T05:40:08;22.90;99.90
16174;DHT22;14031;50.158;8.626;2022-08-01T05:42:35;22.90;99.90
16174;DHT22;14031;50.158;8.626;2022-08-01T05:45:02;23.00;99.90
16174;DHT22;14031;50.158;8.626;2022-08-01T05:47:29;23.00;99.90
16174;DHT22;14031;50.158;8.626;2022-08-01T05:49:56;23.00;99.90
16174;DHT22;14031;50.158;8.626;2022-08-01T05:52:23;23.10;99.90
16174;DHT22;14031;50.158;8.626;2022-08-01T05:54:51;23.20;99.90
16174;DHT22;14031;50.158;8.626;2022-08-01T05:57:18;23.20;99.90
16174;DHT22;14031;50.158;8.626;2022-08-01T05:59:45;23.20;99.90
16174;DHT22;14031;50.158;8.626;2022-08-01T06:02:11;23.20;99.90
16174;DHT22;14031;50.158;8.626;2022-08-01T06:04:38;23.30;99.90
16174;DHT22;14031;50.158;8.626;2022-08-01T06:07:05;23.30;99.90
16174;DHT22;14031;50.158;8.626;2022-08-01T06:09:32;23.30;99.90
16174;DHT22;14031;50.158;8.626;2022-08-01T06:12:00;23.40;99.90
16174;DHT22;14031;50.158;8.626;2022-08-01T06:14:28;23.40;99.90
16174;DHT22;14031;50.158;8.626;2022-08-01T06:16:55;23.40;99.90
16174;DHT22;14031;50.158;8.626;2022-08-01T06:19:22;23.50;99.90
16174;DHT22;14031;50.158;8.626;2022-08-01T06:21:49;23.50;99.90
16174;DHT22;14031;50.158;8.626;2022-08-01T06:24:16;23.50;99.90
16174;DHT22;14031;50.158;8.626;2022-08-01T06:26:42;23.60;99.90
16174;DHT22;14031;50.158;8.626;2022-08-01T06:29:11;23.60;99.90
16174;DHT22;14031;50.158;8.626;2022-08-01T06:31:38;23.60;99.90
16174;DHT22;14031;50.158;8.626;2022-08-01T06:34:05;23.60;99.90
16174;DHT22;14031;50.158;8.626;2022-08-01T06:36:32;23.60;99.90
16174;DHT22;14031;50.158;8.626;2022-08-01T06:38:59;23.60;99.90
16174;DHT22;14031;50.158;8.626;2022-08-01T06:41:25;23.60;99.90
16174;DHT22;14031;50.158;8.626;2022-08-01T06:43:52;23.70;99.90
16174;DHT22;14031;50.158;8.626;2022-08-01T06:46:21;23.80;99.90
16174;DHT22;14031;50.158;8.626;2022-08-01T06:48:47;23.90;99.90
16174;DHT22;14031;50.158;8.626;2022-08-01T06:51:14;24.00;99.90
16174;DHT22;14031;50.158;8.626;2022-08-01T06:53:43;24.10;99.90
16174;DHT22;14031;50.158;8.626;2022-08-01T06:56:10;24.20;99.90
16174;DHT22;14031;50.158;8.626;2022-08-01T06:58:37;24.30;99.90
16174;DHT22;14031;50.158;8.626;2022-08-01T07:01:04;24.40;99.90
16174;DHT22;14031;50.158;8.626;2022-08-01T07:03:34;24.30;99.90
16174;DHT22;14031;50.158;8.626;2022-08-01T07:06:01;24.40;99.90
16174;DHT22;14031;50.158;8.626;2022-08-01T07:08:28;24.40;99.90
16174;DHT22;14031;50.158;8.626;2022-08-01T07:10:55;24.50;99.90
16174;DHT22;14031;50.158;8.626;2022-08-01T07:13:24;24.50;99.90
16174;DHT22;14031;50.158;8.626;2022-08-01T07:15:52;24.60;99.90
16174;DHT22;14031;50.158;8.626;2022-08-01T07:18:19;24.70;99.90
16174;DHT22;14031;50.158;8.626;2022-08-01T07:20:47;24.80;99.90
16174;DHT22;14031;50.158;8.626;2022-08-01T07:23:15;24.90;99.90
16174;DHT22;14031;50.158;8.626;2022-08-01T07:25:41;25.00;99.90
16174;DHT22;14031;50.158;8.626;2022-08-01T07:28:09;25.10;99.90
16174;DHT22;14031;50.158;8.626;2022-08-01T07:30:35;25.30;99.90
16174;DHT22;14031;50.158;8.626;2022-08-01T07:33:03;25.50;99.90
16174;DHT22;14031;50.158;8.626;2022-08-01T07:35:29;25.70;99.90
16174;DHT22;14031;50.158;8.626;2022-08-01T07:37:57;25.80;99.90
16174;DHT22;14031;50.158;8.626;2022-08-01T07:40:24;25.90;99.90
16174;DHT22;14031;50.158;8.626;2022-08-01T07:42:51;26.00;99.90
16174;DHT22;14031;50.158;8.626;2022-08-01T07:45:18;26.00;99.90
16174;DHT22;14031;50.158;8.626;2022-08-01T07:47:46;26.00;99.90
16174;DHT22;14031;50.158;8.626;2022-08-01T07:50:14;26.00;99.90
16174;DHT22;14031;50.158;8.626;2022-08-01T07:52:42;26.00;99.90
16174;DHT22;14031;50.158;8.626;2022-08-01T07:55:11;26.00;99.90
16174;DHT22;14031;50.158;8.626;2022-08-01T07:57:38;26.00;99.90
16174;DHT22;14031;50.158;8.626;2022-08-01T08:00:06;26.10;99.90
16174;DHT22;14031;50.158;8.626;2022-08-01T08:02:34;26.10;99.90
16174;DHT22;14031;50.158;8.626;2022-08-01T08:05:01;26.20;99.90
16174;DHT22;14031;50.158;8.626;2022-08-01T08:07:29;26.20;99.90
16174;DHT22;14031;50.158;8.626;2022-08-01T08:09:56;26.20;99.90
16174;DHT22;14031;50.158;8.626;2022-08-01T08:12:24;26.10;99.90
16174;DHT22;14031;50.158;8.626;2022-08-01T08:14:51;26.10;99.90
16174;DHT22;14031;50.158;8.626;2022-08-01T08:17:18;26.10;99.90
16174;DHT22;14031;50.158;8.626;2022-08-01T08:19:45;26.10;99.90
16174;DHT22;14031;50.158;8.626;2022-08-01T08:22:12;26.30;99.90
16174;DHT22;14031;50.158;8.626;2022-08-01T08:24:38;26.30;99.90
16174;DHT22;14031;50.158;8.626;2022-08-01T08:27:05;26.40;99.90
16174;DHT22;14031;50.158;8.626;2022-08-01T08:29:34;26.30;99.90
16174;DHT22;14031;50.158;8.626;2022-08-01T08:32:02;26.10;99.90
16174;DHT22;14031;50.158;8.626;2022-08-01T08:34:29;26.00;99.90
16174;DHT22;14031;50.158;8.626;2022-08-01T08:36:56;26.00;99.90
16174;DHT22;14031;50.158;8.626;2022-08-01T08:39:23;26.00;99.90
16174;DHT22;14031;50.158;8.626;2022-08-01T08:41:50;26.00;99.90
16174;DHT22;14031;50.158;8.626;2022-08-01T08:44:18;26.10;99.90
16174;DHT22;14031;50.158;8.626;2022-08-01T08:46:49;26.20;99.90
16174;DHT22;14031;50.158;8.626;2022-08-01T08:49:18;26.20;99.90
16174;DHT22;14031;50.158;8.626;2022-08-01T08:51:48;26.30;99.90
16174;DHT22;14031;50.158;8.626;2022-08-01T08:54:16;26.30;99.90
16174;DHT22;14031;50.158;8.626;2022-08-01T08:56:45;26.40;99.90
16174;DHT22;14031;50.158;8.626;2022-08-01T08:59:12;26.40;99.90
16174;DHT22;14031;50.158;8.626;2022-08-01T09:01:40;26.40;99.90
16174;DHT22;14031;50.158;8.626;2022-08-01T09:04:08;26.40;99.90
16174;DHT22;14031;50.158;8.626;2022-08-01T09:06:35;26.50;99.90
16174;DHT22;14031;50.158;8.626;2022-08-01T09:09:03;26.60;99.90
16174;DHT22;14031;50.158;8.626;2022-08-01T09:11:30;26.70;99.90
16174;DHT22;14031;50.158;8.626;2022-08-01T09:14:08;26.70;99.90
16174;DHT22;14031;50.158;8.626;2022-08-01T09:16:37;26.80;99.90
16174;DHT22;14031;50.158;8.626;2022-08-01T09:19:11;26.80;99.90
16174;DHT22;14031;50.158;8.626;2022-08-01T09:21:38;26.80;99.90
16174;DHT22;14031;50.158;8.626;2022-08-01T09:24:15;26.80;99.90
16174;DHT22;14031;50.158;8.626;2022-08-01T09:26:42;26.90;99.90
16174;DHT22;14031;50.158;8.626;2022-08-01T09:29:18;26.90;99.90
16174;DHT22;14031;50.158;8.626;2022-08-01T09:31:46;26.90;99.90
16174;DHT22;14031;50.158;8.626;2022-08-01T09:34:15;27.00;99.90
16174;DHT22;14031;50.158;8.626;2022-08-01T09:36:47;27.10;99.90
16174;DHT22;14031;50.158;8.626;2022-08-01T09:39:17;27.30;99.90
16174;DHT22;14031;50.158;8.626;2022-08-01T09:41:45;27.50;99.90
16174;DHT22;14031;50.158;8.626;2022-08-01T09:44:12;27.60;99.90
16174;DHT22;14031;50.158;8.626;2022-08-01T09:46:49;27.70;99.90
16174;DHT22;14031;50.158;8.626;2022-08-01T09:49:27;27.80;99.90
16174;DHT22;14031;50.158;8.626;2022-08-01T09:51:54;27.90;99.90
16174;DHT22;14031;50.158;8.626;2022-08-01T09:54:29;28.10;99.90
16174;DHT22;14031;50.158;8.626;2022-08-01T09:57:08;28.20;99.90
16174;DHT22;14031;50.158;8.626;2022-08-01T09:59:36;28.40;99.90
16174;DHT22;14031;50.158;8.626;2022-08-01T10:02:06;28.50;99.90
16174;DHT22;14031;50.158;8.626;2022-08-01T10:04:35;28.70;99.90
16174;DHT22;14031;50.158;8.626;2022-08-01T10:07:06;28.90;99.90
16174;DHT22;14031;50.158;8.626;2022-08-01T10:09:35;29.10;99.90
16174;DHT22;14031;50.158;8.626;2022-08-01T10:12:03;29.20;99.90
16174;DHT22;14031;50.158;8.626;2022-08-01T10:14:31;29.10;99.90
16174;DHT22;14031;50.158;8.626;2022-08-01T10:16:59;29.00;99.90
16174;DHT22;14031;50.158;8.626;2022-08-01T10:19:28;28.80;99.90
16174;DHT22;14031;50.158;8.626;2022-08-01T10:21:57;28.70;99.90
16174;DHT22;14031;50.158;8.626;2022-08-01T10:24:26;28.70;99.90
16174;DHT22;14031;50.158;8.626;2022-08-01T10:26:57;28.70;99.90
16174;DHT22;14031;50.158;8.626;2022-08-01T10:29:27;28.70;99.90
16174;DHT22;14031;50.158;8.626;2022-08-01T10:31:56;28.70;99.90
16174;DHT22;14031;50.158;8.626;2022-08-01T10:34:23;28.70;99.90
16174;DHT22;14031;50.158;8.626;2022-08-01T10:36:51;28.60;99.90
16174;DHT22;14031;50.158;8.626;2022-08-01T10:39:19;28.30;99.90
16174;DHT22;14031;50.158;8.626;2022-08-01T10:41:47;28.20;99.90
16174;DHT22;14031;50.158;8.626;2022-08-01T10:44:14;28.10;99.90
16174;DHT22;14031;50.158;8.626;2022-08-01T10:46:46;28.40;99.90
16174;DHT22;14031;50.158;8.626;2022-08-01T10:49:17;28.80;99.90
16174;DHT22;14031;50.158;8.626;2022-08-01T10:51:46;29.10;99.90
16174;DHT22;14031;50.158;8.626;2022-08-01T10:54:13;29.10;99.90
16174;DHT22;14031;50.158;8.626;2022-08-01T10:56:44;28.90;99.90
16174;DHT22;14031;50.158;8.626;2022-08-01T10:59:15;28.70;99.90
16174;DHT22;14031;50.158;8.626;2022-08-01T11:01:56;28.50;99.90
16174;DHT22;14031;50.158;8.626;2022-08-01T11:04:33;28.30;99.90
16174;DHT22;14031;50.158;8.626;2022-08-01T11:07:04;28.10;99.90
16174;DHT22;14031;50.158;8.626;2022-08-01T11:09:38;27.90;99.90
16174;DHT22;14031;50.158;8.626;2022-08-01T11:12:09;27.80;99.90
16174;DHT22;14031;50.158;8.626;2022-08-01T11:17:42;27.60;99.90
16174;DHT22;14031;50.158;8.626;2022-08-01T11:20:14;27.70;99.90
16174;DHT22;14031;50.158;8.626;2022-08-01T11:28:46;28.90;99.90
16174;DHT22;14031;50.158;8.626;2022-08-01T11:31:32;29.30;99.90
16174;DHT22;14031;50.158;8.626;2022-08-01T11:34:00;29.70;99.90
16174;DHT22;14031;50.158;8.626;2022-08-01T11:36:27;30.00;99.90
16174;DHT22;14031;50.158;8.626;2022-08-01T11:39:14;30.30;99.90
16174;DHT22;14031;50.158;8.626;2022-08-01T11:41:42;30.70;99.90
16174;DHT22;14031;50.158;8.626;2022-08-01T11:44:13;31.00;99.90
16174;DHT22;14031;50.158;8.626;2022-08-01T11:46:48;31.20;99.90
16174;DHT22;14031;50.158;8.626;2022-08-01T11:49:33;31.40;99.90
16174;DHT22;14031;50.158;8.626;2022-08-01T11:52:04;31.50;99.90
16174;DHT22;14031;50.158;8.626;2022-08-01T11:54:32;31.70;99.90
16174;DHT22;14031;50.158;8.626;2022-08-01T11:57:04;31.90;99.90
16174;DHT22;14031;50.158;8.626;2022-08-01T11:59:38;31.90;99.90
16174;DHT22;14031;50.158;8.626;2022-08-01T12:02:15;32.00;99.90
16174;DHT22;14031;50.158;8.626;2022-08-01T12:04:54;32.00;99.90
16174;DHT22;14031;50.158;8.626;2022-08-01T12:07:22;31.90;99.90
16174;DHT22;14031;50.158;8.626;2022-08-01T12:09:57;32.00;99.90
16174;DHT22;14031;50.158;8.626;2022-08-01T12:12:27;32.20;99.90
16174;DHT22;14031;50.158;8.626;2022-08-01T12:14:57;32.20;99.90
16174;DHT22;14031;50.158;8.626;2022-08-01T12:17:29;32.20;99.90
16174;DHT22;14031;50.158;8.626;2022-08-01T12:19:56;32.00;99.90
16174;DHT22;14031;50.158;8.626;2022-08-01T12:22:24;31.90;99.90
16174;DHT22;14031;50.158;8.626;2022-08-01T12:24:52;31.80;99.90
16174;DHT22;14031;50.158;8.626;2022-08-01T12:27:26;31.80;99.90
16174;DHT22;14031;50.158;8.626;2022-08-01T12:29:56;32.00;99.90
16174;DHT22;14031;50.158;8.626;2022-08-01T12:32:26;32.20;99.90
16174;DHT22;14031;50.158;8.626;2022-08-01T12:34:54;32.30;99.90
16174;DHT22;14031;50.158;8.626;2022-08-01T12:37:22;32.40;99.90
16174;DHT22;14031;50.158;8.626;2022-08-01T12:39:49;32.40;99.90
16174;DHT22;14031;50.158;8.626;2022-08-01T12:42:16;32.40;99.90
16174;DHT22;14031;50.158;8.626;2022-08-01T12:44:45;32.30;99.90
16174;DHT22;14031;50.158;8.626;2022-08-01T12:47:14;32.30;99.90
16174;DHT22;14031;50.158;8.626;2022-08-01T12:49:43;32.30;99.90
16174;DHT22;14031;50.158;8.626;2022-08-01T12:52:11;32.20;99.90
16174;DHT22;14031;50.158;8.626;2022-08-01T12:55:04;32.00;99.90
16174;DHT22;14031;50.158;8.626;2022-08-01T12:57:38;31.80;99.90
16174;DHT22;14031;50.158;8.626;2022-08-01T13:00:12;31.60;99.90
16174;DHT22;14031;50.158;8.626;2022-08-01T13:02:41;31.50;99.90
16174;DHT22;14031;50.158;8.626;2022-08-01T13:05:09;31.30;99.90
16174;DHT22;14031;50.158;8.626;2022-08-01T13:07:38;31.30;99.90
16174;DHT22;14031;50.158;8.626;2022-08-01T13:10:06;31.20;99.90
16174;DHT22;14031;50.158;8.626;2022-08-01T13:12:33;31.00;99.90
16174;DHT22;14031;50.158;8.626;2022-08-01T13:15:17;30.80;99.90
16174;DHT22;14031;50.158;8.626;2022-08-01T13:17:45;30.50;99.90
16174;DHT22;14031;50.158;8.626;2022-08-01T13:20:31;30.20;99.90
16174;DHT22;14031;50.158;8.626;2022-08-01T13:23:11;30.10;99.90
16174;DHT22;14031;50.158;8.626;2022-08-01T13:25:47;30.00;99.90
16174;DHT22;14031;50.158;8.626;2022-08-01T13:28:16;29.90;99.90
16174;DHT22;14031;50.158;8.626;2022-08-01T13:30:55;29.90;99.90
16174;DHT22;14031;50.158;8.626;2022-08-01T13:33:23;29.80;99.90
16174;DHT22;14031;50.158;8.626;2022-08-01T13:35:51;29.80;99.90
16174;DHT22;14031;50.158;8.626;2022-08-01T13:38:19;29.80;99.90
16174;DHT22;14031;50.158;8.626;2022-08-01T13:40:45;29.80;99.90
16174;DHT22;14031;50.158;8.626;2022-08-01T13:43:12;29.90;99.90
16174;DHT22;14031;50.158;8.626;2022-08-01T13:45:40;30.00;99.90
16174;DHT22;14031;50.158;8.626;2022-08-01T13:48:07;29.90;99.90
16174;DHT22;14031;50.158;8.626;2022-08-01T13:50:35;29.80;99.90
16174;DHT22;14031;50.158;8.626;2022-08-01T13:53:02;29.70;99.90
16174;DHT22;14031;50.158;8.626;2022-08-01T13:55:29;29.70;99.90
16174;DHT22;14031;50.158;8.626;2022-08-01T13:57:56;29.60;99.90
16174;DHT22;14031;50.158;8.626;2022-08-01T14:00:23;29.50;99.90
16174;DHT22;14031;50.158;8.626;2022-08-01T14:02:49;29.40;99.90
16174;DHT22;14031;50.158;8.626;2022-08-01T14:05:16;29.40;99.90
16174;DHT22;14031;50.158;8.626;2022-08-01T14:07:45;29.30;99.90
16174;DHT22;14031;50.158;8.626;2022-08-01T14:10:13;29.10;99.90
16174;DHT22;14031;50.158;8.626;2022-08-01T14:12:40;29.00;99.90
16174;DHT22;14031;50.158;8.626;2022-08-01T14:15:08;29.00;99.90
16174;DHT22;14031;50.158;8.626;2022-08-01T14:17:35;28.90;99.90
16174;DHT22;14031;50.158;8.626;2022-08-01T14:20:02;28.90;99.90
16174;DHT22;14031;50.158;8.626;2022-08-01T14:22:30;28.90;99.90
16174;DHT22;14031;50.158;8.626;2022-08-01T14:24:58;29.10;99.90
16174;DHT22;14031;50.158;8.626;2022-08-01T14:27:25;29.10;99.90
16174;DHT22;14031;50.158;8.626;2022-08-01T14:29:54;29.20;99.90
16174;DHT22;14031;50.158;8.626;2022-08-01T14:32:21;29.40;99.90
16174;DHT22;14031;50.158;8.626;2022-08-01T14:34:48;29.70;99.90
16174;DHT22;14031;50.158;8.626;2022-08-01T14:37:14;30.00;99.90
16174;DHT22;14031;50.158;8.626;2022-08-01T14:39:41;30.30;99.90
16174;DHT22;14031;50.158;8.626;2022-08-01T14:42:10;30.70;99.90
16174;DHT22;14031;50.158;8.626;2022-08-01T14:44:36;30.90;99.90
16174;DHT22;14031;50.158;8.626;2022-08-01T14:47:04;31.10;99.90
16174;DHT22;14031;50.158;8.626;2022-08-01T14:49:31;31.30;99.90
16174;DHT22;14031;50.158;8.626;2022-08-01T14:51:58;31.50;99.90
16174;DHT22;14031;50.158;8.626;2022-08-01T14:54:25;31.50;99.90
16174;DHT22;14031;50.158;8.626;2022-08-01T14:56:51;31.60;99.90
16174;DHT22;14031;50.158;8.626;2022-08-01T14:59:20;31.70;99.90
16174;DHT22;14031;50.158;8.626;2022-08-01T15:01:47;31.70;99.90
16174;DHT22;14031;50.158;8.626;2022-08-01T15:04:13;31.50;99.90
16174;DHT22;14031;50.158;8.626;2022-08-01T15:06:40;31.20;99.90
16174;DHT22;14031;50.158;8.626;2022-08-01T15:09:07;31.00;99.90
16174;DHT22;14031;50.158;8.626;2022-08-01T15:11:34;30.70;99.90
16174;DHT22;14031;50.158;8.626;2022-08-01T15:14:01;30.50;99.90
16174;DHT22;14031;50.158;8.626;2022-08-01T15:16:47;30.40;99.90
16174;DHT22;14031;50.158;8.626;2022-08-01T15:19:15;30.30;99.90
16174;DHT22;14031;50.158;8.626;2022-08-01T15:21:42;30.20;99.90
16174;DHT22;14031;50.158;8.626;2022-08-01T15:24:09;30.50;99.90
16174;DHT22;14031;50.158;8.626;2022-08-01T15:26:35;30.90;99.90
16174;DHT22;14031;50.158;8.626;2022-08-01T15:29:03;31.20;99.90
16174;DHT22;14031;50.158;8.626;2022-08-01T15:31:29;31.30;99.90
16174;DHT22;14031;50.158;8.626;2022-08-01T15:33:59;31.30;99.90
16174;DHT22;14031;50.158;8.626;2022-08-01T15:36:26;31.10;99.90
16174;DHT22;14031;50.158;8.626;2022-08-01T15:38:53;31.10;99.90
16174;DHT22;14031;50.158;8.626;2022-08-01T15:41:20;31.10;99.90
16174;DHT22;14031;50.158;8.626;2022-08-01T15:43:47;31.20;99.90
16174;DHT22;14031;50.158;8.626;2022-08-01T15:46:14;31.20;99.90
16174;DHT22;14031;50.158;8.626;2022-08-01T15:48:41;31.10;99.90
16174;DHT22;14031;50.158;8.626;2022-08-01T15:51:09;30.90;99.90